CYYT

St John's International Airport

Airport
ICAO code
CYYT
IATA Code
YTT
Summary
ICAO Region
NAM
ICAO Territory
Location

St John's, Newfoundland,

Serving
St John's
Elevation
461 ft
Coordinates
47° 37' 7" N , 52° 45' 7" W
KCC
Metar
CYYT 192100Z 16008KT 15SM FEW160 BKN230 20/14 A3011 RMK AC2CI4 SLP200 DENSITY ALT 1000FT

Description

St. John's International Airport is an international airport located 3 nm northwest of St. John's, Newfoundland and Labrador, Canada that serves the St. John's Metro Area and the Avalon Peninsula.

Climatology

Humid Continental climate (Köppen climate classification Dfb) - Variable weather patterns and a large seasonal temperature variance. Summers are often warm and humid with frequent thunderstorms and winters can be very cold with frequent snowfall and persistent snow cover.

The separate article climate Newfoundland contains more detail on the climate of Newfoundland and associated weather phenomena.

Runways

Designator Length Width Surface Rops
2/20 1533 30 ASP Yes/Yes
16/34 2135 61 ASP Yes/Yes
11/29 2591 61 ASP Yes/Yes

Airport map

Aerial View

SKYbrary Partners:

Safety knowledge contributed by: